createdAt,value
2022-09-09T00:03:19.364Z,79.75
2022-09-09T00:08:23.875Z,79.13
2022-09-09T00:14:00.477Z,79.49
2022-09-09T00:19:09.272Z,79.97
2022-09-09T00:24:15.051Z,80.26
2022-09-09T00:29:36.518Z,81.03
2022-09-09T00:34:49.796Z,80.19
2022-09-09T00:39:55.777Z,81.50
2022-09-09T00:45:00.157Z,81.62
2022-09-09T00:50:04.102Z,80.08
2022-09-09T00:55:19.780Z,81.23
2022-09-09T01:00:31.310Z,80.80
2022-09-09T01:05:47.397Z,81.69
2022-09-09T01:10:51.999Z,80.96
2022-09-09T01:16:01.145Z,80.36
2022-09-09T01:21:18.976Z,81.99
2022-09-09T01:26:35.281Z,80.55
2022-09-09T01:31:43.875Z,80.15
2022-09-09T01:36:53.145Z,80.74
2022-09-09T01:41:55.633Z,81.47
2022-09-09T01:46:57.512Z,81.48
2022-09-09T01:51:59.390Z,82.00
2022-09-09T01:57:19.972Z,83.17
2022-09-09T02:02:29.532Z,82.86
2022-09-09T02:07:44.007Z,82.26
2022-09-09T02:13:24.550Z,83.21
2022-09-09T02:18:36.730Z,84.04
2022-09-09T02:23:40.688Z,83.15
2022-09-09T02:28:44.845Z,83.88
2022-09-09T02:33:53.665Z,84.42
2022-09-09T02:38:55.467Z,83.69
2022-09-09T02:44:01.664Z,83.59
2022-09-09T02:49:18.960Z,84.02
2022-09-09T02:54:31.777Z,85.09
2022-09-09T02:59:36.090Z,85.79
2022-09-09T03:04:41.056Z,84.65
2022-09-09T03:09:43.170Z,86.63
2022-09-09T03:14:46.970Z,85.18
2022-09-09T03:19:50.515Z,86.06
2022-09-09T03:24:52.988Z,85.06
2022-09-09T03:29:54.677Z,85.44
2022-09-09T03:34:59.284Z,85.49
2022-09-09T03:40:01.653Z,85.77
2022-09-09T03:45:05.992Z,86.43
2022-09-09T03:50:10.376Z,84.70
2022-09-09T03:55:15.390Z,85.52
2022-09-09T04:00:17.645Z,85.75
2022-09-09T04:05:21.252Z,85.57
2022-09-09T04:10:24.121Z,84.42
2022-09-09T04:15:26.788Z,84.97
2022-09-09T04:20:28.606Z,85.59
2022-09-09T04:25:30.452Z,85.36
2022-09-09T04:30:32.793Z,86.41
2022-09-09T04:35:34.943Z,85.40
2022-09-09T04:40:36.713Z,85.12
2022-09-09T04:45:38.429Z,84.38
2022-09-09T04:50:41.560Z,84.53
2022-09-09T04:55:45.917Z,84.47
2022-09-09T05:00:48.349Z,84.12
2022-09-09T05:05:51.425Z,85.04
2022-09-09T05:10:52.989Z,84.45
2022-09-09T05:15:55.590Z,83.30
2022-09-09T05:21:01.366Z,83.82
2022-09-09T05:26:03.943Z,83.02
2022-09-09T05:31:09.084Z,82.47
2022-09-09T05:36:17.620Z,82.10
2022-09-09T05:41:21.167Z,81.50
2022-09-09T05:46:24.975Z,81.13
2022-09-09T05:51:30.975Z,80.55
2022-09-09T05:56:34.255Z,80.33
2022-09-09T06:01:37.423Z,80.23
2022-09-09T06:06:42.448Z,80.82
2022-09-09T06:11:49.499Z,80.81
2022-09-09T06:16:51.107Z,81.24
2022-09-09T06:21:56.362Z,80.81
2022-09-09T06:26:58.397Z,80.03
2022-09-09T06:32:04.476Z,79.98
2022-09-09T06:37:07.562Z,79.62
2022-09-09T06:42:17.317Z,80.00
2022-09-09T06:47:25.591Z,80.53
2022-09-09T06:52:27.772Z,80.06
2022-09-09T06:57:37.258Z,80.23
2022-09-09T07:02:42.233Z,80.29
2022-09-09T07:07:45.038Z,79.17
2022-09-09T07:12:53.143Z,79.05
2022-09-09T07:17:55.717Z,79.23
2022-09-09T07:22:57.802Z,78.63
2022-09-09T07:27:59.507Z,78.06
2022-09-09T07:33:01.074Z,77.56
2022-09-09T07:38:07.557Z,76.20
2022-09-09T07:43:12.417Z,76.36
2022-09-09T07:48:16.075Z,76.69
2022-09-09T07:53:17.751Z,77.46
2022-09-09T07:58:19.421Z,76.15
2022-09-09T08:03:22.981Z,76.63
2022-09-09T08:08:24.576Z,76.94
2022-09-09T08:13:26.292Z,77.91
2022-09-09T08:18:28.810Z,77.77
2022-09-09T08:23:31.065Z,78.09
2022-09-09T08:28:32.617Z,77.74
2022-09-09T08:33:34.583Z,77.69
2022-09-09T08:38:36.943Z,79.53
2022-09-09T08:43:38.613Z,79.02
2022-09-09T08:48:55.999Z,78.68
2022-09-09T08:54:01.066Z,79.63
2022-09-09T08:59:06.351Z,78.89
2022-09-09T09:04:39.597Z,77.97
2022-09-09T09:09:59.648Z,76.36
2022-09-09T09:15:02.142Z,77.18
2022-09-09T09:20:04.268Z,77.57
2022-09-09T09:25:19.213Z,78.39
2022-09-09T09:30:29.531Z,79.98
2022-09-09T09:35:41.641Z,80.64
2022-09-09T09:40:53.029Z,81.85
2022-09-09T09:46:14.346Z,83.51
2022-09-09T09:51:19.765Z,82.38
2022-09-09T09:56:30.070Z,80.47
2022-09-09T10:01:37.170Z,79.80
2022-09-09T10:06:43.725Z,80.83
2022-09-09T10:11:50.863Z,80.61
2022-09-09T10:16:53.297Z,82.67
2022-09-09T10:22:19.163Z,83.00
2022-09-09T10:27:23.421Z,80.88
2022-09-09T10:32:38.280Z,79.16
2022-09-09T10:37:59.553Z,79.42
2022-09-09T10:43:50.357Z,77.18
2022-09-09T10:49:01.185Z,77.55
2022-09-09T10:54:12.190Z,75.95
2022-09-09T10:59:27.703Z,75.48
2022-09-09T11:04:44.936Z,73.93
2022-09-09T11:09:51.204Z,73.89
2022-09-09T11:14:58.705Z,73.40
2022-09-09T11:20:00.224Z,72.55
2022-09-09T11:25:20.258Z,72.12
2022-09-09T11:30:53.663Z,72.91
2022-09-09T11:36:07.215Z,73.92
2022-09-09T11:41:11.041Z,74.25
2022-09-09T11:46:16.251Z,73.64
2022-09-09T11:51:20.530Z,73.22
2022-09-09T11:56:31.769Z,75.28
2022-09-09T12:01:37.733Z,73.83
2022-09-09T12:07:06.797Z,73.98
2022-09-09T12:12:14.593Z,74.91
2022-09-09T12:17:15.972Z,74.46
2022-09-09T12:22:29.178Z,73.90
2022-09-09T12:27:59.640Z,72.56
2022-09-09T12:33:13.728Z,72.41
2022-09-09T12:38:23.513Z,72.87
2022-09-09T12:43:26.500Z,74.02
2022-09-09T12:48:43.106Z,73.46
2022-09-09T12:53:46.990Z,74.55
2022-09-09T12:58:52.547Z,73.30
2022-09-09T13:03:54.227Z,70.95
2022-09-09T13:09:02.538Z,71.22
2022-09-09T13:14:04.453Z,69.97
2022-09-09T13:19:18.726Z,69.48
2022-09-09T13:24:34.534Z,69.93
2022-09-09T13:29:36.013Z,69.64
2022-09-09T13:34:37.556Z,67.75
2022-09-09T13:39:39.144Z,68.59
2022-09-09T13:44:42.075Z,69.12
2022-09-09T13:49:43.639Z,69.77
2022-09-09T13:54:52.600Z,69.18
2022-09-09T14:00:11.311Z,68.81
2022-09-09T14:05:12.916Z,68.94
2022-09-09T14:10:14.422Z,68.04
2022-09-09T14:15:16.203Z,66.53
2022-09-09T14:20:18.517Z,66.78
2022-09-09T14:25:20.050Z,66.43
2022-09-09T14:30:21.631Z,66.61
2022-09-09T14:35:23.199Z,66.45
2022-09-09T14:40:24.758Z,66.17
2022-09-09T14:45:27.367Z,66.77
2022-09-09T14:50:29.963Z,65.42
2022-09-09T14:55:32.400Z,66.15
2022-09-09T15:00:33.973Z,68.30
2022-09-09T15:05:37.203Z,67.53
2022-09-09T15:10:40.034Z,66.49
2022-09-09T15:15:42.551Z,67.28
2022-09-09T15:20:47.455Z,66.86
2022-09-09T15:25:56.818Z,66.22
2022-09-09T15:30:59.017Z,66.04
2022-09-09T15:36:00.672Z,67.51
2022-09-09T15:41:02.168Z,68.06
2022-09-09T15:46:31.028Z,68.73
2022-09-09T15:51:47.935Z,70.50
2022-09-09T15:56:52.838Z,71.88
2022-09-09T16:01:55.877Z,72.78
2022-09-09T16:07:01.108Z,72.23
2022-09-09T16:12:07.209Z,71.23
2022-09-09T16:17:08.940Z,71.14
2022-09-09T16:22:10.512Z,70.69
2022-09-09T16:27:12.584Z,70.44
2022-09-09T16:32:14.129Z,69.98
2022-09-09T16:37:15.609Z,70.33
2022-09-09T16:42:17.976Z,70.83
2022-09-09T16:47:19.607Z,69.04
2022-09-09T16:52:21.111Z,68.42
2022-09-09T16:57:22.619Z,68.37
2022-09-09T17:02:25.336Z,66.90
2022-09-09T17:07:26.951Z,67.89
2022-09-09T17:12:28.732Z,68.28
2022-09-09T17:17:31.912Z,68.80
2022-09-09T17:22:33.836Z,70.33
2022-09-09T17:27:35.406Z,71.73
2022-09-09T17:32:37.440Z,72.79
2022-09-09T17:37:39.061Z,72.81
2022-09-09T17:42:41.609Z,73.49
2022-09-09T17:47:43.871Z,73.94
2022-09-09T17:52:45.452Z,74.23
2022-09-09T17:57:47.088Z,74.90
2022-09-09T18:02:48.644Z,75.07
2022-09-09T18:07:50.212Z,75.18
2022-09-09T18:12:51.922Z,75.32
2022-09-09T18:17:53.538Z,75.85
2022-09-09T18:22:55.312Z,76.47
2022-09-09T18:27:58.465Z,76.99
2022-09-09T18:33:00.115Z,76.73
2022-09-09T18:38:01.727Z,76.68
2022-09-09T18:43:03.485Z,77.19
2022-09-09T18:48:05.735Z,77.75
2022-09-09T18:53:07.253Z,78.28
2022-09-09T18:58:08.766Z,78.28
2022-09-09T19:03:10.291Z,78.31
2022-09-09T19:08:11.824Z,78.67
2022-09-09T19:13:14.051Z,79.01
2022-09-09T19:18:15.624Z,78.99
2022-09-09T19:23:17.214Z,78.73
2022-09-09T19:28:18.771Z,79.52
2022-09-09T19:33:20.277Z,80.06
2022-09-09T19:38:21.778Z,79.77
2022-09-09T19:43:24.738Z,79.69
2022-09-09T19:48:31.355Z,81.00
2022-09-09T19:53:36.154Z,81.34
2022-09-09T19:58:39.976Z,81.29
2022-09-09T20:03:43.427Z,82.05
2022-09-09T20:08:47.230Z,81.95
2022-09-09T20:13:49.534Z,82.57
2022-09-09T20:18:53.337Z,82.74
2022-09-09T20:23:55.895Z,82.56
2022-09-09T20:28:57.420Z,82.37
2022-09-09T20:33:59.258Z,81.94
2022-09-09T20:39:07.504Z,81.91
2022-09-09T20:44:13.226Z,81.08
2022-09-09T20:49:16.531Z,81.53
2022-09-09T20:54:23.808Z,81.57
2022-09-09T20:59:27.202Z,81.84
2022-09-09T21:04:29.183Z,81.85
2022-09-09T21:09:31.027Z,81.74
2022-09-09T21:14:32.677Z,82.19
2022-09-09T21:19:35.644Z,82.08
2022-09-09T21:24:38.283Z,82.36
2022-09-09T21:29:39.790Z,82.94
2022-09-09T21:34:42.372Z,82.47
2022-09-09T21:39:43.975Z,82.61
2022-09-09T21:44:45.537Z,82.42
2022-09-09T21:49:47.037Z,82.54
2022-09-09T21:54:48.880Z,82.62
2022-09-09T21:59:50.394Z,82.59
2022-09-09T22:04:52.139Z,83.40
2022-09-09T22:09:53.726Z,83.41
2022-09-09T22:14:56.279Z,83.55
2022-09-09T22:19:58.362Z,83.53
2022-09-09T22:24:59.931Z,84.12
2022-09-09T22:30:01.612Z,83.71
2022-09-09T22:35:03.321Z,83.79
2022-09-09T22:40:05.337Z,83.47
2022-09-09T22:45:07.938Z,83.80
2022-09-09T22:50:10.242Z,83.59
2022-09-09T22:55:11.762Z,82.73
2022-09-09T23:00:13.829Z,83.15
2022-09-09T23:05:15.647Z,82.96
2022-09-09T23:10:17.292Z,82.82
2022-09-09T23:15:19.884Z,81.95
2022-09-09T23:20:22.187Z,82.36
2022-09-09T23:25:23.745Z,82.10
2022-09-09T23:30:25.497Z,82.79
2022-09-09T23:35:27.080Z,82.13
2022-09-09T23:40:28.645Z,83.43
2022-09-09T23:45:30.217Z,83.81
2022-09-09T23:50:31.920Z,84.49
2022-09-09T23:55:33.862Z,85.20
